createdAt,value
2023-04-09T00:00:38.859Z,71.76
2023-04-09T00:02:43.373Z,72.32
2023-04-09T00:04:45.563Z,72.74
2023-04-09T00:06:47.268Z,72.23
2023-04-09T00:08:48.867Z,72.63
2023-04-09T00:10:50.512Z,71.73
2023-04-09T00:12:52.131Z,72.53
2023-04-09T00:14:53.721Z,72.58
2023-04-09T00:16:55.334Z,72.41
2023-04-09T00:18:58.297Z,72.56
2023-04-09T00:21:00.052Z,72.30
2023-04-09T00:23:01.630Z,72.47
2023-04-09T00:25:03.378Z,72.07
2023-04-09T00:27:05.032Z,71.89
2023-04-09T00:29:06.610Z,71.95
2023-04-09T00:31:08.531Z,72.15
2023-04-09T00:33:10.573Z,71.94
2023-04-09T00:35:13.801Z,72.50
2023-04-09T00:37:15.681Z,72.03
2023-04-09T00:39:17.227Z,72.00
2023-04-09T00:41:19.001Z,71.76
2023-04-09T00:43:20.673Z,71.76
2023-04-09T00:45:22.656Z,71.67
2023-04-09T00:47:24.294Z,71.82
2023-04-09T00:49:27.094Z,72.26
2023-04-09T00:51:31.007Z,72.26
2023-04-09T00:53:32.895Z,72.05
2023-04-09T00:55:35.940Z,71.84
2023-04-09T00:57:37.776Z,71.91
2023-04-09T00:59:39.476Z,72.21
2023-04-09T01:01:41.400Z,72.16
2023-04-09T01:03:43.458Z,71.97
2023-04-09T01:05:54.778Z,71.65
2023-04-09T01:08:04.089Z,71.26
2023-04-09T01:10:15.319Z,71.58
2023-04-09T01:12:26.258Z,71.58
2023-04-09T01:14:35.222Z,72.04
2023-04-09T01:16:40.105Z,72.20
2023-04-09T01:18:46.385Z,71.51
2023-04-09T01:20:56.254Z,72.03
2023-04-09T01:23:05.311Z,71.73
2023-04-09T01:25:16.780Z,71.63
2023-04-09T01:27:19.338Z,71.73
2023-04-09T01:29:23.885Z,71.96
2023-04-09T01:31:30.340Z,71.43
2023-04-09T01:33:33.664Z,71.75
2023-04-09T01:35:35.369Z,71.68
2023-04-09T01:37:38.773Z,72.03
2023-04-09T01:39:41.837Z,72.10
2023-04-09T01:41:44.040Z,71.86
2023-04-09T01:43:46.172Z,72.06
2023-04-09T01:45:51.502Z,72.03
2023-04-09T01:47:55.101Z,71.88
2023-04-09T01:49:57.414Z,71.65
2023-04-09T01:51:59.711Z,71.61
2023-04-09T01:54:01.731Z,72.02
2023-04-09T01:56:03.638Z,71.74
2023-04-09T01:58:05.480Z,72.00
2023-04-09T02:00:08.678Z,71.93
2023-04-09T02:02:17.875Z,71.49
2023-04-09T02:04:23.863Z,71.83
2023-04-09T02:06:36.879Z,71.67
2023-04-09T02:08:38.636Z,72.02
2023-04-09T02:10:40.989Z,71.44
2023-04-09T02:12:48.631Z,72.17
2023-04-09T02:14:52.516Z,72.22
2023-04-09T02:16:54.282Z,71.61
2023-04-09T02:18:57.898Z,72.02
2023-04-09T02:21:00.206Z,71.89
2023-04-09T02:23:01.730Z,71.80
2023-04-09T02:25:03.969Z,71.76
2023-04-09T02:27:06.193Z,71.53
2023-04-09T02:29:08.065Z,71.67
2023-04-09T02:31:10.086Z,71.85
2023-04-09T02:33:11.897Z,72.24
2023-04-09T02:35:16.018Z,72.24
2023-04-09T02:37:20.894Z,71.62
2023-04-09T02:39:22.690Z,71.73
2023-04-09T02:41:24.413Z,72.37
2023-04-09T02:43:26.832Z,71.96
2023-04-09T02:45:28.635Z,72.20
2023-04-09T02:47:30.519Z,72.01
2023-04-09T02:49:32.175Z,71.64
2023-04-09T02:51:36.442Z,71.80
2023-04-09T02:53:38.295Z,71.77
2023-04-09T02:55:40.339Z,71.75
2023-04-09T02:57:41.966Z,72.43
2023-04-09T02:59:44.211Z,71.92
2023-04-09T03:01:46.189Z,72.46
2023-04-09T03:03:48.421Z,71.79
2023-04-09T03:05:50.561Z,72.49
2023-04-09T03:07:54.463Z,71.89
2023-04-09T03:09:56.357Z,72.27
2023-04-09T03:11:59.003Z,71.97
2023-04-09T03:14:00.597Z,72.27
2023-04-09T03:16:02.271Z,71.72
2023-04-09T03:18:04.347Z,71.92
2023-04-09T03:20:07.402Z,72.00
2023-04-09T03:22:08.990Z,72.39
2023-04-09T03:24:12.131Z,72.21
2023-04-09T03:26:13.890Z,71.77
2023-04-09T03:28:15.962Z,71.91
2023-04-09T03:30:17.591Z,71.78
2023-04-09T03:32:19.260Z,72.00
2023-04-09T03:34:21.168Z,71.68
2023-04-09T03:36:22.921Z,71.66
2023-04-09T03:38:24.713Z,71.80
2023-04-09T03:40:27.822Z,71.99
2023-04-09T03:42:29.421Z,71.54
2023-04-09T03:44:31.403Z,71.16
2023-04-09T03:46:33.232Z,71.71
2023-04-09T03:48:34.862Z,72.01
2023-04-09T03:50:39.620Z,71.77
2023-04-09T03:52:41.654Z,71.87
2023-04-09T03:54:43.251Z,71.86
2023-04-09T03:56:46.611Z,72.15
2023-04-09T03:58:48.132Z,72.19
2023-04-09T04:00:50.113Z,71.34
2023-04-09T04:02:51.963Z,71.38
2023-04-09T04:04:53.762Z,71.25
2023-04-09T04:06:55.636Z,72.03
2023-04-09T04:08:57.411Z,71.58
2023-04-09T04:11:03.893Z,71.62
2023-04-09T04:13:15.659Z,71.56
2023-04-09T04:15:17.656Z,71.82
2023-04-09T04:17:19.303Z,71.91
2023-04-09T04:19:20.980Z,71.86
2023-04-09T04:21:22.940Z,71.75
2023-04-09T04:23:27.817Z,72.09
2023-04-09T04:25:29.385Z,71.84
2023-04-09T04:27:31.521Z,72.01
2023-04-09T04:29:34.499Z,71.78
2023-04-09T04:31:36.119Z,72.33
2023-04-09T04:33:39.282Z,71.83
2023-04-09T04:35:41.238Z,72.24
2023-04-09T04:37:42.868Z,72.21
2023-04-09T04:39:44.516Z,71.93
2023-04-09T04:41:46.413Z,71.99
2023-04-09T04:43:48.026Z,72.13
2023-04-09T04:45:53.508Z,71.89
2023-04-09T04:47:57.108Z,72.06
2023-04-09T04:49:59.117Z,71.39
2023-04-09T04:52:00.892Z,72.14
2023-04-09T04:54:02.467Z,71.68
2023-04-09T04:56:04.615Z,72.30
2023-04-09T04:58:06.230Z,72.38
2023-04-09T05:00:09.374Z,72.18
2023-04-09T05:02:12.749Z,72.24
2023-04-09T05:04:14.615Z,72.00
2023-04-09T05:06:18.345Z,72.24
2023-04-09T05:08:20.198Z,72.60
2023-04-09T05:10:21.881Z,72.22
2023-04-09T05:12:23.466Z,72.46
2023-04-09T05:14:25.089Z,72.70
2023-04-09T05:16:26.748Z,72.55
2023-04-09T05:18:32.320Z,72.63
2023-04-09T05:20:34.673Z,72.16
2023-04-09T05:22:36.386Z,72.71
2023-04-09T05:24:38.052Z,72.16
2023-04-09T05:26:39.710Z,72.54
2023-04-09T05:28:41.464Z,72.19
2023-04-09T05:30:47.046Z,72.13
2023-04-09T05:32:48.871Z,72.65
2023-04-09T05:34:51.972Z,72.20
2023-04-09T05:36:54.154Z,72.02
2023-04-09T05:38:55.978Z,72.37
2023-04-09T05:40:57.741Z,71.89
2023-04-09T05:42:59.578Z,72.57
2023-04-09T05:45:01.411Z,72.53
2023-04-09T05:47:03.220Z,72.23
2023-04-09T05:49:04.832Z,72.33
2023-04-09T05:51:08.208Z,71.72
2023-04-09T05:53:10.805Z,72.21
2023-04-09T05:55:13.306Z,71.72
2023-04-09T05:57:15.297Z,72.01
2023-04-09T05:59:17.138Z,71.90
2023-04-09T06:01:19.023Z,71.61
2023-04-09T06:03:21.031Z,71.98
2023-04-09T06:05:22.971Z,72.42
2023-04-09T06:07:25.965Z,72.13
2023-04-09T06:09:27.801Z,71.79
2023-04-09T06:11:29.505Z,71.92
2023-04-09T06:13:31.414Z,72.35
2023-04-09T06:15:33.172Z,72.35
2023-04-09T06:17:34.843Z,72.41
2023-04-09T06:19:36.472Z,72.40
2023-04-09T06:21:38.048Z,71.77
2023-04-09T06:23:41.358Z,72.24
2023-04-09T06:25:42.945Z,72.45
2023-04-09T06:27:44.580Z,72.40
2023-04-09T06:29:48.580Z,72.36
2023-04-09T06:31:51.783Z,72.97
2023-04-09T06:33:53.960Z,72.59
2023-04-09T06:35:56.166Z,73.04
2023-04-09T06:37:58.012Z,72.45
2023-04-09T06:40:01.705Z,73.04
2023-04-09T06:42:03.865Z,72.80
2023-04-09T06:44:05.469Z,73.21
2023-04-09T06:46:07.546Z,72.76
2023-04-09T06:48:09.166Z,72.92
2023-04-09T06:50:10.946Z,73.09
2023-04-09T06:52:12.813Z,73.49
2023-04-09T06:54:14.909Z,72.84
2023-04-09T06:56:18.377Z,73.35
2023-04-09T06:58:21.283Z,73.82
2023-04-09T07:00:22.891Z,73.54
2023-04-09T07:02:24.669Z,73.43
2023-04-09T07:04:26.678Z,72.97
2023-04-09T07:06:28.355Z,73.08
2023-04-09T07:08:30.278Z,72.57
2023-04-09T07:10:32.565Z,72.89
2023-04-09T07:12:35.869Z,73.46
2023-04-09T07:14:37.680Z,72.87
2023-04-09T07:16:39.915Z,73.60
2023-04-09T07:18:41.556Z,73.70
2023-04-09T07:20:43.157Z,73.58
2023-04-09T07:22:44.842Z,73.84
2023-04-09T07:24:46.658Z,73.69
2023-04-09T07:26:52.089Z,73.86
2023-04-09T07:28:56.031Z,73.86
2023-04-09T07:30:57.916Z,73.46
2023-04-09T07:32:59.818Z,73.58
2023-04-09T07:35:02.807Z,73.81
2023-04-09T07:37:04.600Z,73.18
2023-04-09T07:39:08.354Z,73.41
2023-04-09T07:41:11.473Z,73.85
2023-04-09T07:43:13.340Z,73.82
2023-04-09T07:45:16.795Z,73.49
2023-04-09T07:47:18.441Z,73.40
2023-04-09T07:49:20.090Z,73.10
2023-04-09T07:51:21.875Z,72.60
2023-04-09T07:53:25.003Z,73.41
2023-04-09T07:55:26.729Z,72.66
2023-04-09T07:57:30.821Z,72.64
2023-04-09T07:59:32.632Z,72.03
2023-04-09T08:01:36.241Z,72.49
2023-04-09T08:03:37.980Z,72.84
2023-04-09T08:05:39.782Z,72.60
2023-04-09T08:07:42.233Z,72.45
2023-04-09T08:09:43.862Z,72.63
2023-04-09T08:11:46.017Z,72.82
2023-04-09T08:13:47.823Z,71.98
2023-04-09T08:15:50.142Z,72.52
2023-04-09T08:17:53.395Z,71.96
2023-04-09T08:19:55.068Z,72.65
2023-04-09T08:21:56.931Z,72.23
2023-04-09T08:23:58.539Z,72.14
2023-04-09T08:26:00.110Z,71.74
2023-04-09T08:28:01.973Z,71.95
2023-04-09T08:30:04.654Z,71.77
2023-04-09T08:32:06.471Z,71.53
2023-04-09T08:34:10.497Z,71.76
2023-04-09T08:36:12.350Z,71.78
2023-04-09T08:38:14.005Z,71.39
2023-04-09T08:40:15.841Z,71.50
2023-04-09T08:42:19.033Z,72.00
2023-04-09T08:44:20.612Z,71.82
2023-04-09T08:46:22.945Z,72.05
2023-04-09T08:48:25.540Z,71.34
2023-04-09T08:50:29.395Z,71.51
2023-04-09T08:52:32.562Z,71.95
2023-04-09T08:54:34.542Z,70.77
2023-04-09T08:56:36.133Z,71.71
2023-04-09T08:58:37.926Z,71.21
2023-04-09T09:00:39.542Z,71.22
2023-04-09T09:03:01.983Z,70.79
2023-04-09T09:05:03.825Z,70.12
2023-04-09T09:07:07.422Z,70.45
2023-04-09T09:09:10.913Z,70.36
2023-04-09T09:11:25.780Z,69.99
2023-04-09T09:13:28.233Z,69.99
2023-04-09T09:15:30.304Z,69.42
2023-04-09T09:17:31.966Z,69.38
2023-04-09T09:19:34.061Z,69.65
2023-04-09T09:21:36.050Z,68.44
2023-04-09T09:23:39.203Z,69.12
2023-04-09T09:25:42.197Z,68.58
2023-04-09T09:27:44.117Z,68.25
2023-04-09T09:29:45.959Z,68.44
2023-04-09T09:31:49.065Z,68.03
2023-04-09T09:33:51.214Z,68.05
2023-04-09T09:35:54.971Z,68.18
2023-04-09T09:38:03.568Z,67.65
2023-04-09T09:40:09.159Z,68.23
2023-04-09T09:42:10.985Z,67.42
2023-04-09T09:44:32.231Z,67.51
2023-04-09T09:46:39.887Z,66.86
2023-04-09T09:48:41.962Z,66.50
2023-04-09T09:50:46.196Z,66.98
2023-04-09T09:52:50.832Z,66.09
2023-04-09T09:54:53.077Z,66.16
2023-04-09T09:57:00.636Z,66.72
2023-04-09T09:59:07.458Z,66.62
2023-04-09T10:01:13.201Z,66.35
2023-04-09T10:03:19.816Z,65.58
2023-04-09T10:05:22.329Z,65.98
2023-04-09T10:07:24.457Z,65.38
2023-04-09T10:09:28.039Z,65.07
2023-04-09T10:11:31.353Z,65.53
2023-04-09T10:13:37.478Z,65.70
2023-04-09T10:15:40.237Z,64.33
2023-04-09T10:17:42.156Z,64.68
2023-04-09T10:19:51.696Z,64.78
2023-04-09T10:21:59.771Z,64.98
2023-04-09T10:24:02.149Z,64.30
2023-04-09T10:26:04.271Z,63.33
2023-04-09T10:28:17.400Z,64.11
2023-04-09T10:30:36.472Z,64.60
2023-04-09T10:32:38.401Z,64.06
2023-04-09T10:34:41.605Z,63.72
2023-04-09T10:36:43.919Z,62.54
2023-04-09T10:38:47.015Z,62.98
2023-04-09T10:40:50.770Z,63.38
2023-04-09T10:42:54.918Z,63.09
2023-04-09T10:45:08.073Z,64.02
2023-04-09T10:47:11.529Z,62.23
2023-04-09T10:49:17.288Z,62.27
2023-04-09T10:51:21.597Z,61.19
2023-04-09T10:53:25.210Z,61.50
2023-04-09T10:55:37.306Z,62.42
2023-04-09T10:57:39.218Z,61.03
2023-04-09T10:59:44.155Z,60.66
2023-04-09T11:01:52.852Z,61.59
2023-04-09T11:04:17.029Z,61.25
2023-04-09T11:06:21.349Z,60.55
2023-04-09T11:08:23.460Z,59.15
2023-04-09T11:10:25.066Z,58.17
2023-04-09T11:12:26.732Z,58.46
2023-04-09T11:14:28.236Z,57.35
2023-04-09T11:16:30.598Z,58.47
2023-04-09T11:18:34.806Z,57.87
2023-04-09T11:20:38.695Z,57.83
2023-04-09T11:22:40.788Z,57.52
2023-04-09T11:24:42.609Z,56.90
2023-04-09T11:26:44.210Z,55.98
2023-04-09T11:28:46.047Z,55.59
2023-04-09T11:30:50.300Z,54.94
2023-04-09T11:32:51.943Z,54.93
2023-04-09T11:34:53.482Z,54.83
2023-04-09T11:36:56.736Z,54.68
2023-04-09T11:38:58.356Z,55.03
2023-04-09T11:41:01.705Z,55.03
2023-04-09T11:43:03.560Z,54.54
2023-04-09T11:45:06.210Z,54.72
2023-04-09T11:47:09.008Z,55.01
2023-04-09T11:49:10.804Z,54.52
2023-04-09T11:51:12.446Z,54.48
2023-04-09T11:53:20.580Z,55.47
2023-04-09T11:55:26.361Z,55.19
2023-04-09T11:57:37.681Z,56.29
2023-04-09T11:59:39.350Z,54.76
2023-04-09T12:01:41.400Z,54.20
2023-04-09T12:03:43.221Z,54.26
2023-04-09T12:05:50.514Z,55.18
2023-04-09T12:07:57.095Z,54.70
2023-04-09T12:10:04.692Z,55.36
2023-04-09T12:12:08.382Z,53.72
2023-04-09T12:14:13.262Z,53.88
2023-04-09T12:16:19.483Z,53.95
2023-04-09T12:18:22.007Z,53.60
2023-04-09T12:20:42.434Z,55.07
2023-04-09T12:22:44.258Z,52.79
2023-04-09T12:24:46.392Z,53.16
2023-04-09T12:26:49.992Z,53.67
2023-04-09T12:28:51.953Z,53.87
2023-04-09T12:30:54.696Z,54.21
2023-04-09T12:32:56.538Z,53.91
2023-04-09T12:34:58.338Z,53.57
2023-04-09T12:36:59.908Z,53.47
2023-04-09T12:39:01.641Z,52.88
2023-04-09T12:41:03.427Z,53.26
2023-04-09T12:43:06.952Z,53.33
2023-04-09T12:45:10.091Z,53.30
2023-04-09T12:47:11.833Z,52.98
2023-04-09T12:49:13.698Z,53.11
2023-04-09T12:51:15.723Z,53.00
2023-04-09T12:53:17.558Z,52.74
2023-04-09T12:55:19.376Z,52.63
2023-04-09T12:57:21.072Z,52.59
2023-04-09T12:59:26.420Z,53.62
2023-04-09T13:01:28.312Z,53.23
2023-04-09T13:03:30.682Z,53.00
2023-04-09T13:05:32.842Z,52.89
2023-04-09T13:07:34.495Z,52.58
2023-04-09T13:09:36.003Z,52.79
2023-04-09T13:11:38.796Z,52.74
2023-04-09T13:13:42.651Z,52.92
2023-04-09T13:15:45.837Z,53.07
2023-04-09T13:17:47.947Z,53.29
2023-04-09T13:19:50.492Z,52.89
2023-04-09T13:21:52.192Z,53.12
2023-04-09T13:23:54.011Z,53.76
2023-04-09T13:25:55.647Z,53.28
2023-04-09T13:27:57.284Z,53.58
2023-04-09T13:29:59.117Z,53.28
2023-04-09T13:32:02.287Z,53.54
2023-04-09T13:34:04.124Z,52.97
2023-04-09T13:36:06.854Z,53.58
2023-04-09T13:38:08.943Z,53.51
2023-04-09T13:40:12.397Z,54.38
2023-04-09T13:42:14.658Z,54.20
2023-04-09T13:44:16.547Z,53.10
2023-04-09T13:46:18.456Z,52.81
2023-04-09T13:48:21.860Z,52.72
2023-04-09T13:50:23.474Z,52.01
2023-04-09T13:52:28.215Z,52.61
2023-04-09T13:54:31.183Z,52.39
2023-04-09T13:56:33.037Z,52.03
2023-04-09T13:58:34.981Z,51.90
2023-04-09T14:00:37.416Z,52.17
2023-04-09T14:02:39.496Z,51.23
2023-04-09T14:04:42.600Z,52.25
2023-04-09T14:06:44.381Z,52.64
2023-04-09T14:08:45.996Z,51.14
2023-04-09T14:10:47.850Z,51.52
2023-04-09T14:12:49.882Z,51.55
2023-04-09T14:14:51.946Z,51.96
2023-04-09T14:16:54.185Z,52.13
2023-04-09T14:18:56.875Z,52.02
2023-04-09T14:21:00.134Z,51.21
2023-04-09T14:23:01.711Z,52.04
2023-04-09T14:25:03.987Z,52.74
2023-04-09T14:27:06.140Z,52.58
2023-04-09T14:29:07.797Z,52.99
2023-04-09T14:31:09.972Z,52.95
2023-04-09T14:33:11.663Z,53.05
2023-04-09T14:35:13.293Z,53.31
2023-04-09T14:37:16.910Z,53.45
2023-04-09T14:39:19.010Z,53.50
2023-04-09T14:41:20.880Z,52.84
2023-04-09T14:43:22.936Z,53.18
2023-04-09T14:45:25.910Z,53.07
2023-04-09T14:47:27.678Z,53.23
2023-04-09T14:49:29.520Z,52.90
2023-04-09T14:51:31.130Z,53.21
2023-04-09T14:53:34.676Z,53.15
2023-04-09T14:55:36.638Z,53.26
2023-04-09T14:57:39.003Z,53.14
2023-04-09T14:59:40.604Z,52.94
2023-04-09T15:01:42.311Z,52.81
2023-04-09T15:03:44.377Z,52.88
2023-04-09T15:05:46.371Z,52.94
2023-04-09T15:07:48.011Z,52.74
2023-04-09T15:09:51.214Z,52.91
2023-04-09T15:11:53.448Z,53.19
2023-04-09T15:13:55.124Z,53.25
2023-04-09T15:15:57.375Z,53.37
2023-04-09T15:17:59.095Z,54.41
2023-04-09T15:20:01.410Z,52.15
2023-04-09T15:22:03.182Z,53.34
2023-04-09T15:24:05.246Z,52.72
2023-04-09T15:26:08.787Z,52.69
2023-04-09T15:28:10.700Z,52.75
2023-04-09T15:30:12.996Z,52.32
2023-04-09T15:32:14.604Z,51.62
2023-04-09T15:34:16.199Z,52.75
2023-04-09T15:36:18.004Z,52.59
2023-04-09T15:38:20.060Z,52.35
2023-04-09T15:40:21.922Z,53.50
2023-04-09T15:42:25.215Z,53.52
2023-04-09T15:44:27.148Z,53.55
2023-04-09T15:46:29.007Z,53.96
2023-04-09T15:48:30.653Z,54.26
2023-04-09T15:50:32.231Z,54.28
2023-04-09T15:52:34.013Z,55.02
2023-04-09T15:54:35.581Z,54.83
2023-04-09T15:56:37.201Z,55.01
2023-04-09T15:58:40.420Z,55.58
2023-04-09T16:00:42.038Z,55.66
2023-04-09T16:02:43.762Z,55.42
2023-04-09T16:04:45.356Z,55.82
2023-04-09T16:06:46.905Z,55.88
2023-04-09T16:08:49.128Z,55.57
2023-04-09T16:10:52.477Z,56.12
2023-04-09T16:12:54.101Z,56.28
2023-04-09T16:14:57.197Z,56.50
2023-04-09T16:16:59.045Z,56.69
2023-04-09T16:19:00.973Z,56.67
2023-04-09T16:21:03.335Z,56.74
2023-04-09T16:23:05.160Z,56.47
2023-04-09T16:25:08.268Z,57.01
2023-04-09T16:27:10.121Z,57.15
2023-04-09T16:29:12.597Z,57.16
2023-04-09T16:31:16.036Z,57.69
2023-04-09T16:33:17.958Z,57.81
2023-04-09T16:35:21.281Z,57.79
2023-04-09T16:37:23.239Z,57.96
2023-04-09T16:39:24.849Z,57.69
2023-04-09T16:41:26.752Z,57.29
2023-04-09T16:43:28.706Z,57.62
2023-04-09T16:45:30.303Z,57.45
2023-04-09T16:47:33.759Z,57.73
2023-04-09T16:49:35.602Z,57.66
2023-04-09T16:51:37.364Z,57.57
2023-04-09T16:53:39.260Z,58.32
2023-04-09T16:55:41.576Z,58.34
2023-04-09T16:57:43.493Z,57.75
2023-04-09T16:59:45.338Z,57.78
2023-04-09T17:01:47.137Z,58.45
2023-04-09T17:03:50.938Z,58.08
2023-04-09T17:05:52.857Z,58.25
2023-04-09T17:07:54.512Z,58.67
2023-04-09T17:09:56.876Z,58.31
2023-04-09T17:11:59.141Z,57.63
2023-04-09T17:14:00.755Z,58.06
2023-04-09T17:16:02.887Z,58.35
2023-04-09T17:18:04.834Z,58.26
2023-04-09T17:20:09.943Z,58.64
2023-04-09T17:22:12.227Z,58.90
2023-04-09T17:24:13.927Z,58.50
2023-04-09T17:26:15.570Z,58.83
2023-04-09T17:28:18.936Z,59.00
2023-04-09T17:30:20.885Z,59.21
2023-04-09T17:32:22.526Z,59.70
2023-04-09T17:34:24.220Z,59.72
2023-04-09T17:36:27.557Z,59.53
2023-04-09T17:38:29.209Z,59.72
2023-04-09T17:40:31.136Z,59.20
2023-04-09T17:42:32.714Z,59.69
2023-04-09T17:44:34.572Z,59.44
2023-04-09T17:46:38.072Z,59.76
2023-04-09T17:48:40.890Z,60.42
2023-04-09T17:50:43.041Z,60.06
2023-04-09T17:52:46.068Z,60.09
2023-04-09T17:54:49.083Z,60.45
2023-04-09T17:56:50.633Z,60.76
2023-04-09T17:58:52.286Z,60.54
2023-04-09T18:00:54.166Z,60.86
2023-04-09T18:02:56.923Z,61.20
2023-04-09T18:04:59.514Z,60.88
2023-04-09T18:07:01.591Z,61.19
2023-04-09T18:09:06.380Z,61.24
2023-04-09T18:11:12.054Z,61.18
2023-04-09T18:13:15.095Z,61.87
2023-04-09T18:15:16.704Z,61.84
2023-04-09T18:17:18.381Z,62.02
2023-04-09T18:19:20.262Z,61.98
2023-04-09T18:21:22.080Z,62.44
2023-04-09T18:23:23.658Z,62.36
2023-04-09T18:25:30.430Z,62.92
2023-04-09T18:27:32.039Z,62.88
2023-04-09T18:29:33.634Z,63.36
2023-04-09T18:31:35.354Z,63.50
2023-04-09T18:33:36.884Z,63.09
2023-04-09T18:35:38.509Z,63.37
2023-04-09T18:37:40.455Z,63.21
2023-04-09T18:39:42.304Z,63.69
2023-04-09T18:41:45.824Z,63.83
2023-04-09T18:43:47.696Z,63.92
2023-04-09T18:45:49.297Z,63.79
2023-04-09T18:47:51.667Z,64.22
2023-04-09T18:49:53.491Z,64.46
2023-04-09T18:51:55.176Z,64.71
2023-04-09T18:53:56.765Z,64.67
2023-04-09T18:55:58.314Z,64.69
2023-04-09T18:58:01.817Z,64.57
2023-04-09T19:00:04.119Z,65.48
2023-04-09T19:02:08.477Z,64.84
2023-04-09T19:04:10.565Z,65.16
2023-04-09T19:06:14.004Z,65.08
2023-04-09T19:08:15.549Z,65.62
2023-04-09T19:10:17.813Z,65.55
2023-04-09T19:12:19.648Z,65.86
2023-04-09T19:14:22.653Z,65.90
2023-04-09T19:16:24.513Z,65.64
2023-04-09T19:18:26.111Z,65.61
2023-04-09T19:20:28.023Z,66.14
2023-04-09T19:22:29.854Z,65.67
2023-04-09T19:24:31.746Z,66.06
2023-04-09T19:26:33.376Z,66.17
2023-04-09T19:28:35.242Z,66.01
2023-04-09T19:30:38.307Z,65.93
2023-04-09T19:32:40.856Z,66.89
2023-04-09T19:34:42.648Z,66.64
2023-04-09T19:36:44.278Z,66.14
2023-04-09T19:38:45.868Z,66.54
2023-04-09T19:40:47.781Z,66.51
2023-04-09T19:42:49.334Z,66.68
2023-04-09T19:44:51.328Z,67.07
2023-04-09T19:46:54.367Z,66.94
2023-04-09T19:48:56.008Z,66.49
2023-04-09T19:50:57.873Z,66.82
2023-04-09T19:52:59.478Z,67.24
2023-04-09T19:55:01.309Z,66.91
2023-04-09T19:57:04.198Z,67.14
2023-04-09T19:59:05.854Z,67.50
2023-04-09T20:01:07.499Z,67.52
2023-04-09T20:03:10.828Z,67.37
2023-04-09T20:05:12.482Z,67.43
2023-04-09T20:07:14.090Z,67.42
2023-04-09T20:09:15.584Z,68.23
2023-04-09T20:11:17.447Z,67.55
2023-04-09T20:13:19.082Z,67.66
2023-04-09T20:15:21.616Z,67.63
2023-04-09T20:17:23.481Z,68.32
2023-04-09T20:19:26.918Z,68.20
2023-04-09T20:21:28.521Z,68.27
2023-04-09T20:23:30.432Z,68.50
2023-04-09T20:25:32.249Z,67.89
2023-04-09T20:27:33.934Z,68.55
2023-04-09T20:29:35.735Z,68.35
2023-04-09T20:31:37.364Z,68.41
2023-04-09T20:33:40.983Z,69.05
2023-04-09T20:35:44.028Z,68.40
2023-04-09T20:37:45.635Z,68.49
2023-04-09T20:39:47.435Z,68.41
2023-04-09T20:41:49.374Z,68.87
2023-04-09T20:43:50.955Z,68.68
2023-04-09T20:45:53.148Z,69.15
2023-04-09T20:47:55.269Z,69.19
2023-04-09T20:49:56.907Z,68.88
2023-04-09T20:52:00.181Z,69.33
2023-04-09T20:54:01.966Z,69.02
2023-04-09T20:56:04.054Z,68.72
2023-04-09T20:58:05.673Z,68.92
2023-04-09T21:00:08.679Z,68.78
2023-04-09T21:02:12.543Z,68.32
2023-04-09T21:04:14.231Z,68.00
2023-04-09T21:06:16.243Z,68.45
2023-04-09T21:08:19.460Z,67.86
2023-04-09T21:10:21.049Z,67.95
2023-04-09T21:12:22.722Z,68.65
2023-04-09T21:14:24.445Z,68.55
2023-04-09T21:16:26.216Z,68.18
2023-04-09T21:18:28.177Z,68.26
2023-04-09T21:20:29.744Z,68.14
2023-04-09T21:22:31.520Z,68.91
2023-04-09T21:24:34.851Z,69.14
2023-04-09T21:26:50.227Z,69.42
2023-04-09T21:28:53.696Z,69.78
2023-04-09T21:30:55.430Z,69.63
2023-04-09T21:32:57.550Z,69.56
2023-04-09T21:34:59.250Z,70.55
2023-04-09T21:37:02.558Z,69.89
2023-04-09T21:39:04.765Z,69.98
2023-04-09T21:41:08.245Z,70.56
2023-04-09T21:43:09.931Z,70.71
2023-04-09T21:45:12.233Z,70.32
2023-04-09T21:47:14.100Z,70.75
2023-04-09T21:49:15.688Z,70.62
2023-04-09T21:51:17.316Z,70.56
2023-04-09T21:53:19.079Z,70.50
2023-04-09T21:55:21.026Z,70.36
2023-04-09T21:57:25.767Z,71.17
2023-04-09T21:59:27.586Z,71.03
2023-04-09T22:01:30.010Z,70.66
2023-04-09T22:03:31.912Z,71.38
2023-04-09T22:05:33.842Z,71.10
2023-04-09T22:07:35.447Z,70.67
2023-04-09T22:09:37.847Z,71.39
2023-04-09T22:11:39.973Z,70.99
2023-04-09T22:13:43.529Z,71.18
2023-04-09T22:15:45.501Z,71.19
2023-04-09T22:17:47.165Z,71.44
2023-04-09T22:19:49.252Z,70.86
2023-04-09T22:21:52.812Z,70.93
2023-04-09T22:23:54.402Z,71.34
2023-04-09T22:25:59.313Z,70.96
2023-04-09T22:28:01.177Z,70.62
2023-04-09T22:30:05.004Z,70.74
2023-04-09T22:32:06.652Z,71.33
2023-04-09T22:34:20.084Z,71.04
2023-04-09T22:36:22.929Z,71.05
2023-04-09T22:38:24.794Z,70.85
2023-04-09T22:40:26.653Z,70.95
2023-04-09T22:42:28.499Z,71.29
2023-04-09T22:44:30.202Z,71.00
2023-04-09T22:46:33.728Z,71.03
2023-04-09T22:48:40.660Z,71.01
2023-04-09T22:50:46.512Z,70.49
2023-04-09T22:52:48.139Z,71.26
2023-04-09T22:54:49.993Z,71.34
2023-04-09T22:56:51.838Z,70.79
2023-04-09T22:58:53.545Z,70.75
2023-04-09T23:00:55.540Z,71.06
2023-04-09T23:02:58.787Z,71.30
2023-04-09T23:05:00.882Z,70.93
2023-04-09T23:07:02.690Z,70.36
2023-04-09T23:09:04.841Z,70.19
2023-04-09T23:11:06.824Z,70.32
2023-04-09T23:13:08.631Z,70.25
2023-04-09T23:15:11.293Z,70.59
2023-04-09T23:17:13.155Z,70.64
2023-04-09T23:19:16.453Z,70.01
2023-04-09T23:21:18.072Z,69.77
2023-04-09T23:23:19.540Z,70.60
2023-04-09T23:25:21.193Z,70.19
2023-04-09T23:27:22.733Z,70.65
2023-04-09T23:29:25.726Z,70.94
2023-04-09T23:31:27.572Z,70.85
2023-04-09T23:33:29.207Z,71.07
2023-04-09T23:35:32.337Z,70.59
2023-04-09T23:37:34.162Z,70.50
2023-04-09T23:39:35.767Z,70.65
2023-04-09T23:41:37.618Z,70.47
2023-04-09T23:43:39.531Z,71.24
2023-04-09T23:45:41.175Z,71.57
2023-04-09T23:47:43.042Z,71.50
2023-04-09T23:49:44.610Z,71.23
2023-04-09T23:51:47.777Z,71.62
2023-04-09T23:53:49.392Z,71.89
2023-04-09T23:55:50.949Z,71.11
2023-04-09T23:57:52.569Z,70.92
2023-04-09T23:59:54.670Z,71.71
